Time;durP1;ratioP1;P1;durP2;ratioP2;P2;SDS_P1;SDS_P2;PMS_P1;PMS_P2;Temp;Humidity;BMP_temperature;BMP_pressure;BME280_temperature;BME280_humidity;BME280_pressure;Samples;Min_cycle;Max_cycle;Signal;HPM_P1;HPM_P2
2020/12/02 00:02:25;;;;;;;68.40;37.40;;;5.20;99.90;;;;;;5044842;28;20698;-52
2020/12/02 00:04:53;;;;;;;62.43;32.67;;;5.10;99.90;;;;;;5046121;28;21034;-51
2020/12/02 00:07:22;;;;;;;75.73;38.37;;;5.30;99.90;;;;;;5047260;28;20498;-52
2020/12/02 00:09:49;;;;;;;76.17;39.17;;;5.20;99.90;;;;;;5047100;28;20508;-52
2020/12/02 00:12:16;;;;;;;80.93;36.53;;;5.10;99.90;;;;;;5047586;28;20888;-52
2020/12/02 00:14:44;;;;;;;84.80;41.77;;;5.30;99.90;;;;;;5047112;28;20771;-52
2020/12/02 00:17:16;;;;;;;74.87;36.83;;;5.30;99.90;;;;;;5052386;28;20899;-52
2020/12/02 00:19:45;;;;;;;77.83;37.83;;;5.30;99.90;;;;;;5033116;28;20239;-52
2020/12/02 00:22:16;;;;;;;92.00;42.63;;;5.30;99.90;;;;;;5047471;28;21059;-51
2020/12/02 00:24:45;;;;;;;83.73;41.93;;;5.50;99.90;;;;;;5050073;28;20235;-52
2020/12/02 00:27:17;;;;;;;80.33;39.23;;;5.30;99.90;;;;;;5050774;28;20864;-52
2020/12/02 00:29:45;;;;;;;79.67;40.60;;;5.30;99.90;;;;;;5050537;28;20369;-52
2020/12/02 00:32:26;;;;;;;75.90;37.77;;;5.30;99.90;;;;;;5050037;28;20476;-52
2020/12/02 00:34:53;;;;;;;79.33;37.77;;;5.30;99.90;;;;;;5030372;28;20506;-52
2020/12/02 00:37:22;;;;;;;81.50;41.03;;;5.60;99.90;;;;;;5050557;28;20474;-52
2020/12/02 00:39:50;;;;;;;82.70;43.13;;;5.60;99.90;;;;;;5050680;28;20318;-52
2020/12/02 00:42:18;;;;;;;68.30;36.43;;;5.40;99.90;;;;;;5050646;28;20255;-52
2020/12/02 00:44:46;;;;;;;72.50;40.13;;;5.30;99.90;;;;;;5049976;28;20297;-52
2020/12/02 00:47:18;;;;;;;67.70;39.27;;;5.20;99.90;;;;;;5050365;28;20239;-51
2020/12/02 00:49:47;;;;;;;65.00;36.17;;;5.10;99.90;;;;;;5036729;28;20822;-52
2020/12/02 00:52:16;;;;;;;73.10;40.57;;;5.10;99.90;;;;;;5044724;28;20239;-52
2020/12/02 00:54:44;;;;;;;77.27;40.47;;;5.20;99.90;;;;;;5061332;28;20718;-52
2020/12/02 00:57:18;;;;;;;70.07;39.37;;;5.10;99.90;;;;;;5030654;28;20529;-52
2020/12/02 00:59:52;;;;;;;72.43;39.30;;;5.10;99.90;;;;;;5030151;28;20252;-52
2020/12/02 01:02:39;;;;;;;70.47;38.90;;;5.20;99.90;;;;;;5029253;28;20294;-52
2020/12/02 01:05:07;;;;;;;69.23;39.40;;;5.10;99.90;;;;;;5036346;28;20776;-52
2020/12/02 01:07:40;;;;;;;70.77;36.90;;;5.30;99.90;;;;;;5050123;28;20317;-52
2020/12/02 01:10:08;;;;;;;74.23;40.03;;;5.50;99.90;;;;;;5050146;28;20642;-52
2020/12/02 01:12:38;;;;;;;74.70;39.03;;;5.40;99.90;;;;;;5049740;28;20615;-52
2020/12/02 01:15:06;;;;;;;77.13;39.77;;;5.60;99.90;;;;;;5049420;28;20694;-53
2020/12/02 01:17:33;;;;;;;81.03;44.30;;;5.70;99.90;;;;;;5049491;28;20328;-52
2020/12/02 01:20:01;;;;;;;67.70;39.80;;;5.40;99.90;;;;;;5039676;28;20249;-51
2020/12/02 01:22:33;;;;;;;62.23;37.07;;;5.20;99.90;;;;;;5048513;28;20240;-52
2020/12/02 01:25:07;;;;;;;69.87;40.90;;;5.30;99.90;;;;;;5047906;28;20350;-52
2020/12/02 01:27:41;;;;;;;68.93;42.00;;;5.20;99.90;;;;;;5048996;28;20293;-52
2020/12/02 01:30:13;;;;;;;65.03;36.33;;;5.20;99.90;;;;;;5048116;28;20270;-52
2020/12/02 01:32:42;;;;;;;68.00;38.57;;;5.10;99.90;;;;;;5047614;28;20694;-52
2020/12/02 01:35:14;;;;;;;70.60;37.80;;;5.20;99.90;;;;;;5047952;28;20323;-52
2020/12/02 01:37:42;;;;;;;58.00;36.63;;;5.10;99.90;;;;;;5048314;28;20354;-52
2020/12/02 01:40:17;;;;;;;73.47;40.00;;;5.10;99.90;;;;;;5048101;28;20285;-52
2020/12/02 01:42:50;;;;;;;69.53;38.50;;;5.10;99.90;;;;;;5047584;28;20542;-53
2020/12/02 01:45:23;;;;;;;70.13;39.77;;;5.10;99.90;;;;;;5047517;28;20562;-52
2020/12/02 01:48:09;;;;;;;69.87;37.97;;;5.20;99.90;;;;;;5048423;28;20767;-52
2020/12/02 01:50:41;;;;;;;66.83;37.07;;;5.30;99.90;;;;;;5047568;28;20331;-52
2020/12/02 01:53:19;;;;;;;66.63;37.80;;;5.10;99.90;;;;;;5047440;28;20270;-52
2020/12/02 01:55:54;;;;;;;63.20;36.50;;;5.10;99.90;;;;;;5047325;28;20553;-52
2020/12/02 01:58:42;;;;;;;61.97;33.33;;;5.00;99.90;;;;;;5047915;28;20501;-52
2020/12/02 02:01:16;;;;;;;65.30;34.33;;;5.00;99.90;;;;;;5047565;28;20509;-52
2020/12/02 02:03:45;;;;;;;78.73;39.77;;;5.10;99.90;;;;;;5047511;28;20238;-52
2020/12/02 02:06:17;;;;;;;69.63;38.63;;;5.00;99.90;;;;;;5048466;28;20490;-52
2020/12/02 02:08:45;;;;;;;62.70;33.43;;;4.90;99.90;;;;;;5044388;28;20236;-53
2020/12/02 02:11:20;;;;;;;85.97;39.87;;;4.90;99.90;;;;;;5029066;28;20479;-52
2020/12/02 02:14:10;;;;;;;73.20;37.57;;;5.20;99.90;;;;;;5032937;28;20566;-52
2020/12/02 02:16:42;;;;;;;66.30;36.13;;;4.90;99.90;;;;;;5036745;28;21029;-52
2020/12/02 02:19:19;;;;;;;70.37;36.97;;;5.00;99.90;;;;;;5041695;28;20964;-52
2020/12/02 02:21:50;;;;;;;65.90;32.67;;;5.00;99.90;;;;;;5067221;28;20556;-52
2020/12/02 02:24:18;;;;;;;69.37;32.47;;;5.10;99.90;;;;;;5039191;28;20572;-52
2020/12/02 02:26:50;;;;;;;77.83;37.97;;;5.10;99.90;;;;;;5048977;28;20687;-53
2020/12/02 02:29:21;;;;;;;89.23;39.23;;;5.20;99.90;;;;;;5036550;28;20327;-52
2020/12/02 02:31:59;;;;;;;89.77;37.40;;;5.30;99.90;;;;;;5035403;28;20981;-52
2020/12/02 02:34:29;;;;;;;93.03;39.00;;;5.40;99.90;;;;;;5048256;28;20480;-52
2020/12/02 02:36:58;;;;;;;101.97;42.50;;;5.30;99.90;;;;;;5047781;28;20486;-52
2020/12/02 02:39:25;;;;;;;100.83;45.30;;;5.40;99.90;;;;;;5048080;28;20887;-52
2020/12/02 02:41:57;;;;;;;87.40;42.67;;;5.20;99.90;;;;;;5048164;28;20322;-52
2020/12/02 02:44:25;;;;;;;84.30;41.70;;;5.00;99.90;;;;;;5048357;28;20305;-52
2020/12/02 02:46:54;;;;;;;75.53;39.57;;;5.00;99.90;;;;;;5048472;28;20477;-52
2020/12/02 02:49:22;;;;;;;77.83;37.87;;;4.90;99.90;;;;;;5048224;28;20505;-52
2020/12/02 02:51:50;;;;;;;78.13;40.23;;;5.00;99.90;;;;;;5048068;28;20515;-51
2020/12/02 02:54:17;;;;;;;71.97;38.23;;;5.20;99.90;;;;;;5047970;28;20815;-52
2020/12/02 02:56:45;;;;;;;69.70;38.27;;;5.00;99.90;;;;;;5048560;28;20969;-52
2020/12/02 02:59:13;;;;;;;69.07;39.33;;;4.90;99.90;;;;;;5048243;28;20549;-52
2020/12/02 03:01:43;;;;;;;69.27;38.80;;;5.00;99.90;;;;;;5047754;28;20318;-52
2020/12/02 03:04:11;;;;;;;68.17;37.97;;;4.90;99.90;;;;;;5047570;28;20262;-51
2020/12/02 03:06:38;;;;;;;61.77;35.27;;;4.90;99.90;;;;;;5048314;28;20552;-52
2020/12/02 03:09:07;;;;;;;68.70;38.07;;;5.10;99.90;;;;;;5047197;28;20486;-52
2020/12/02 03:11:35;;;;;;;63.33;36.00;;;5.30;99.90;;;;;;5046889;28;21063;-52
2020/12/02 03:14:02;;;;;;;72.07;40.13;;;5.30;99.90;;;;;;5055545;28;20593;-52
2020/12/02 03:16:37;;;;;;;66.80;37.03;;;5.10;99.90;;;;;;5042766;28;20513;-52
2020/12/02 03:19:11;;;;;;;64.43;35.53;;;5.10;99.90;;;;;;5060770;28;20909;-52
2020/12/02 03:21:39;;;;;;;70.90;37.50;;;5.10;99.90;;;;;;5036610;28;20985;-52
2020/12/02 03:24:09;;;;;;;61.63;37.07;;;5.30;99.90;;;;;;5027759;28;20669;-51
2020/12/02 03:26:36;;;;;;;69.47;40.50;;;5.20;99.90;;;;;;5028162;28;20960;-52
2020/12/02 03:29:04;;;;;;;64.13;37.73;;;5.10;99.90;;;;;;5027933;28;21069;-52
2020/12/02 03:31:33;;;;;;;60.77;36.87;;;5.10;99.90;;;;;;5027309;28;20506;-52
2020/12/02 03:34:01;;;;;;;59.53;35.00;;;5.00;99.90;;;;;;5027537;28;20518;-52
2020/12/02 03:36:28;;;;;;;67.17;38.87;;;5.00;99.90;;;;;;5028161;28;20798;-52
2020/12/02 03:38:55;;;;;;;67.03;40.90;;;5.10;99.90;;;;;;5027802;28;20794;-52
2020/12/02 03:41:22;;;;;;;60.70;38.30;;;5.00;99.90;;;;;;5028173;28;20668;-52
2020/12/02 03:43:50;;;;;;;59.60;37.97;;;4.90;99.90;;;;;;5027586;28;20315;-54
2020/12/02 03:46:17;;;;;;;62.73;38.33;;;4.80;99.90;;;;;;5028112;28;20492;-51
2020/12/02 03:48:47;;;;;;;57.07;34.90;;;4.70;99.90;;;;;;5028700;28;21058;-52
2020/12/02 03:51:16;;;;;;;58.20;39.17;;;4.70;99.90;;;;;;5030382;28;20991;-52
2020/12/02 03:53:43;;;;;;;60.27;38.13;;;4.70;99.90;;;;;;5033372;28;20967;-52
2020/12/02 03:56:10;;;;;;;55.87;37.30;;;4.60;99.90;;;;;;5030095;28;20699;-52
2020/12/02 03:58:37;;;;;;;54.20;34.90;;;4.60;99.90;;;;;;5029616;28;21042;-52
2020/12/02 04:01:05;;;;;;;59.30;38.60;;;4.80;99.90;;;;;;5037295;28;20540;-52
2020/12/02 04:03:32;;;;;;;58.40;38.33;;;4.60;99.90;;;;;;5049474;28;20778;-52
2020/12/02 04:06:00;;;;;;;56.67;35.90;;;4.60;99.90;;;;;;5049880;28;20481;-52
2020/12/02 04:08:27;;;;;;;64.63;40.73;;;4.60;99.90;;;;;;5049751;28;20493;-52
2020/12/02 04:10:54;;;;;;;58.93;38.57;;;4.70;99.90;;;;;;5053961;28;20716;-53
2020/12/02 04:13:22;;;;;;;59.30;38.57;;;4.60;99.90;;;;;;5040747;28;20496;-52
2020/12/02 04:15:49;;;;;;;57.37;37.83;;;4.70;99.90;;;;;;5051241;28;20482;-52
2020/12/02 04:18:17;;;;;;;53.23;36.17;;;4.60;99.90;;;;;;5042622;28;20495;-52
2020/12/02 04:20:47;;;;;;;62.67;38.83;;;4.60;99.90;;;;;;5030761;28;20478;-52
2020/12/02 04:23:15;;;;;;;58.70;36.90;;;4.60;99.90;;;;;;5031114;28;20910;-52
2020/12/02 04:25:45;;;;;;;56.33;37.57;;;4.60;99.90;;;;;;5030526;28;20544;-52
2020/12/02 04:28:13;;;;;;;54.40;34.57;;;4.60;99.90;;;;;;5029934;28;20498;-52
2020/12/02 04:30:43;;;;;;;63.22;43.63;;;4.80;99.90;;;;;;5034368;28;20447;-52
2020/12/02 04:33:11;;;;;;;57.67;38.70;;;4.80;99.90;;;;;;5050034;28;20266;-52
2020/12/02 04:35:38;;;;;;;54.37;37.90;;;4.70;99.90;;;;;;5047863;28;20502;-52
2020/12/02 04:38:08;;;;;;;59.87;37.63;;;4.70;99.90;;;;;;5050382;28;20648;-52
2020/12/02 04:40:39;;;;;;;54.07;36.30;;;4.70;99.90;;;;;;5050090;28;20573;-52
2020/12/02 04:43:16;;;;;;;54.97;35.00;;;4.70;99.90;;;;;;5049740;28;20917;-52
2020/12/02 04:45:44;;;;;;;60.17;38.97;;;4.80;99.90;;;;;;5050391;28;20969;-53
2020/12/02 04:48:18;;;;;;;56.37;37.70;;;4.70;99.90;;;;;;5047286;28;20915;-52
2020/12/02 04:50:46;;;;;;;59.30;35.50;;;4.90;99.90;;;;;;5049551;28;20668;-52
2020/12/02 04:53:18;;;;;;;62.60;39.47;;;5.00;99.90;;;;;;5049718;28;20239;-52
2020/12/02 04:55:49;;;;;;;56.77;35.33;;;4.80;99.90;;;;;;5049656;28;20466;-52
2020/12/02 04:58:28;;;;;;;62.67;38.80;;;4.70;99.90;;;;;;5049743;28;20545;-52
2020/12/02 05:01:16;;;;;;;59.63;36.67;;;4.60;99.90;;;;;;5070103;28;20475;-52
2020/12/02 05:03:58;;;;;;;58.20;38.90;;;4.70;99.90;;;;;;5048364;28;20250;-52
2020/12/02 05:06:34;;;;;;;59.50;38.60;;;4.50;99.90;;;;;;5049092;28;20524;-52
2020/12/02 05:09:17;;;;;;;56.80;36.63;;;4.40;99.90;;;;;;5046724;28;20494;-52
2020/12/02 05:11:57;;;;;;;56.93;37.47;;;4.50;99.90;;;;;;5050911;28;20558;-52
2020/12/02 05:14:32;;;;;;;57.60;34.93;;;4.50;99.90;;;;;;5034798;28;20535;-53
2020/12/02 05:17:20;;;;;;;57.47;36.63;;;4.50;99.90;;;;;;5028553;28;20573;-52
2020/12/02 05:20:04;;;;;;;59.77;38.60;;;4.50;99.90;;;;;;5028574;28;20483;-52
2020/12/02 05:22:35;;;;;;;55.67;36.67;;;4.60;99.90;;;;;;5026758;28;20904;-52
2020/12/02 05:25:03;;;;;;;57.17;37.13;;;4.60;99.90;;;;;;5029302;28;20483;-52
2020/12/02 05:27:36;;;;;;;55.70;36.63;;;4.60;99.90;;;;;;5027270;28;20507;-52
2020/12/02 05:30:21;;;;;;;54.03;37.23;;;4.50;99.90;;;;;;5029150;28;21047;-52
2020/12/02 05:33:20;;;;;;;59.67;38.53;;;4.40;99.90;;;;;;5028057;28;20495;-51
2020/12/02 05:35:52;;;;;;;55.53;36.80;;;4.40;99.90;;;;;;5028090;28;20529;-52
2020/12/02 05:38:27;;;;;;;57.70;38.70;;;4.40;99.90;;;;;;5029555;28;20479;-52
2020/12/02 05:40:57;;;;;;;55.93;37.30;;;4.40;99.90;;;;;;5026796;28;20989;-52
2020/12/02 05:43:35;;;;;;;55.73;36.67;;;4.50;99.90;;;;;;5028491;28;20572;-52
2020/12/02 05:46:03;;;;;;;52.83;35.90;;;4.60;99.90;;;;;;5028072;28;20509;-52
2020/12/02 05:48:37;;;;;;;54.13;35.63;;;4.60;99.90;;;;;;5029284;28;21012;-52
2020/12/02 05:51:05;;;;;;;54.40;36.90;;;4.70;99.90;;;;;;5029020;28;20482;-52
2020/12/02 05:53:39;;;;;;;56.20;38.33;;;4.60;99.90;;;;;;5028819;28;20973;-52
2020/12/02 05:56:10;;;;;;;56.30;34.50;;;4.70;99.90;;;;;;5029615;28;21083;-52
2020/12/02 05:58:42;;;;;;;61.60;40.20;;;5.00;99.90;;;;;;5028758;28;20555;-52
2020/12/02 06:01:13;;;;;;;62.23;39.17;;;5.00;99.90;;;;;;5037260;28;20485;-52
2020/12/02 06:03:41;;;;;;;55.80;38.17;;;4.70;99.90;;;;;;5046424;28;20477;-52
2020/12/02 06:06:14;;;;;;;56.73;37.73;;;4.60;99.90;;;;;;5048041;28;20470;-52
2020/12/02 06:08:44;;;;;;;54.00;36.97;;;4.90;99.90;;;;;;5043900;28;20498;-52
2020/12/02 06:11:34;;;;;;;55.70;35.70;;;5.10;99.90;;;;;;5031674;28;20506;-52
2020/12/02 06:14:08;;;;;;;58.43;37.03;;;5.00;99.90;;;;;;5046404;28;20570;-52
2020/12/02 06:16:46;;;;;;;52.17;35.90;;;5.00;99.90;;;;;;5048494;28;20521;-52
2020/12/02 06:19:29;;;;;;;56.37;36.43;;;4.90;99.90;;;;;;5048108;28;20529;-52
2020/12/02 06:22:00;;;;;;;55.37;36.97;;;4.70;99.90;;;;;;5047608;28;20561;-52
2020/12/02 06:24:42;;;;;;;54.50;36.53;;;4.70;99.90;;;;;;5047606;28;20517;-52
2020/12/02 06:27:41;;;;;;;52.70;36.03;;;4.80;99.90;;;;;;5045891;28;20471;-52
2020/12/02 06:30:19;;;;;;;56.10;35.67;;;4.80;99.90;;;;;;5047791;28;20475;-52
2020/12/02 06:33:18;;;;;;;59.20;38.87;;;5.10;99.90;;;;;;5048336;28;20507;-52
2020/12/02 06:36:01;;;;;;;58.90;37.67;;;5.10;99.90;;;;;;4992166;28;21070;-51
2020/12/02 06:38:30;;;;;;;60.43;36.70;;;5.20;99.90;;;;;;5033489;28;20487;-52
2020/12/02 06:41:36;;;;;;;67.80;36.97;;;5.10;99.90;;;;;;5026547;28;20479;-52
2020/12/02 06:44:36;;;;;;;69.93;38.93;;;5.10;99.90;;;;;;5043353;28;20908;-52
2020/12/02 06:47:28;;;;;;;69.93;42.50;;;5.20;99.90;;;;;;5044750;28;20490;-52
2020/12/02 06:50:11;;;;;;;66.37;40.53;;;4.90;99.90;;;;;;5038678;28;20479;-52
2020/12/02 06:52:39;;;;;;;63.43;37.37;;;4.80;99.90;;;;;;5041740;28;20973;-52
2020/12/02 06:55:16;;;;;;;65.37;41.37;;;5.20;99.90;;;;;;5043981;28;20539;-52
2020/12/02 06:57:44;;;;;;;60.83;39.70;;;5.00;99.90;;;;;;5044567;28;21147;-52
2020/12/02 07:00:22;;;;;;;54.30;35.60;;;4.70;99.90;;;;;;5042850;28;20469;-52
2020/12/02 07:02:59;;;;;;;60.20;39.57;;;4.70;99.90;;;;;;5026712;28;20566;-52
2020/12/02 07:05:33;;;;;;;59.47;39.67;;;4.50;99.90;;;;;;5037255;28;20540;-52
2020/12/02 07:08:16;;;;;;;57.60;37.83;;;4.50;99.90;;;;;;5044576;28;20597;-52
2020/12/02 07:11:03;;;;;;;61.40;46.00;;;4.50;99.90;;;;;;5025676;28;20525;-55
2020/12/02 07:13:36;;;;;;;59.30;39.17;;;4.50;99.90;;;;;;5046770;28;20259;-53
2020/12/02 07:16:11;;;;;;;59.67;38.63;;;4.50;99.90;;;;;;5050433;28;20935;-54
2020/12/02 07:18:39;;;;;;;54.30;36.17;;;4.60;99.90;;;;;;5049317;28;20470;-53
2020/12/02 07:21:20;;;;;;;53.33;36.03;;;4.50;99.90;;;;;;5050443;28;20504;-53
2020/12/02 07:23:47;;;;;;;54.43;35.77;;;4.50;99.90;;;;;;5051010;28;20542;-53
2020/12/02 07:26:15;;;;;;;51.33;35.03;;;4.50;99.90;;;;;;5058275;28;20499;-53
2020/12/02 07:28:42;;;;;;;53.97;36.17;;;4.60;99.90;;;;;;5057697;28;20480;-53
2020/12/02 07:31:22;;;;;;;52.80;36.30;;;4.60;99.90;;;;;;5055253;28;20477;-53
2020/12/02 07:34:06;;;;;;;53.60;35.73;;;4.50;99.90;;;;;;5057852;28;20843;-54
2020/12/02 07:36:35;;;;;;;52.60;35.93;;;4.40;99.90;;;;;;5056322;28;20483;-53
2020/12/02 07:39:11;;;;;;;51.23;35.53;;;4.50;99.90;;;;;;5046892;28;20985;-53
2020/12/02 07:41:54;;;;;;;54.00;36.00;;;4.40;99.90;;;;;;5036962;28;20520;-54
2020/12/02 07:44:23;;;;;;;52.17;36.10;;;4.50;99.90;;;;;;5036500;28;20479;-53
2020/12/02 07:46:52;;;;;;;53.87;35.50;;;4.40;99.90;;;;;;5036824;28;20486;-54
2020/12/02 07:49:21;;;;;;;53.93;36.93;;;4.40;99.90;;;;;;5037084;28;20497;-54
2020/12/02 07:51:54;;;;;;;52.77;35.53;;;4.40;99.90;;;;;;5055838;28;20500;-53
2020/12/02 07:54:26;;;;;;;51.73;34.90;;;4.40;99.90;;;;;;5056365;28;20482;-53
2020/12/02 07:56:54;;;;;;;51.83;34.47;;;4.40;99.90;;;;;;5056725;28;20507;-53
2020/12/02 07:59:26;;;;;;;53.90;36.63;;;4.40;99.90;;;;;;5053836;28;20507;-54
2020/12/02 08:02:17;;;;;;;51.73;35.27;;;4.40;99.90;;;;;;5053516;28;20486;-53
2020/12/02 08:04:58;;;;;;;52.60;34.30;;;4.40;99.90;;;;;;5072261;28;20505;-54
2020/12/02 08:07:46;;;;;;;57.90;37.63;;;4.50;99.90;;;;;;5070204;28;20490;-53
2020/12/02 08:10:25;;;;;;;54.63;36.93;;;4.40;99.90;;;;;;5042075;28;20532;-53
2020/12/02 08:12:52;;;;;;;54.60;35.70;;;4.40;99.90;;;;;;5054960;28;20891;-54
2020/12/02 08:15:20;;;;;;;53.17;35.97;;;4.50;99.90;;;;;;5056364;28;20887;-53
2020/12/02 08:18:14;;;;;;;51.90;34.93;;;4.50;99.90;;;;;;5056443;28;20572;-54
2020/12/02 08:20:44;;;;;;;50.50;33.57;;;4.40;99.90;;;;;;5052821;28;20479;-53
2020/12/02 08:23:16;;;;;;;57.30;37.77;;;4.40;99.90;;;;;;5057014;28;20468;-55
2020/12/02 08:25:55;;;;;;;55.63;37.90;;;4.40;99.90;;;;;;5057168;28;20478;-54
2020/12/02 08:28:29;;;;;;;52.67;36.77;;;4.40;99.90;;;;;;5055702;28;20513;-53
2020/12/02 08:31:04;;;;;;;53.50;35.97;;;4.40;99.90;;;;;;5054824;28;20506;-53
2020/12/02 08:33:31;;;;;;;52.50;35.33;;;4.40;99.90;;;;;;5055425;28;20511;-53
2020/12/02 08:36:06;;;;;;;49.57;34.67;;;4.40;99.90;;;;;;5054396;28;20558;-53
2020/12/02 08:38:38;;;;;;;50.57;34.67;;;4.50;99.90;;;;;;5034114;28;20481;-53
2020/12/02 08:41:16;;;;;;;48.57;34.27;;;4.40;99.90;;;;;;5043340;28;20513;-53
2020/12/02 08:43:47;;;;;;;51.00;34.60;;;4.40;99.90;;;;;;5055214;28;21061;-53
2020/12/02 08:46:20;;;;;;;48.87;34.43;;;4.40;99.90;;;;;;5036138;28;20985;-53
2020/12/02 08:48:52;;;;;;;54.50;35.80;;;4.40;99.90;;;;;;5035935;28;20512;-55
2020/12/02 08:51:22;;;;;;;48.17;35.03;;;4.30;99.90;;;;;;5034732;28;20482;-53
2020/12/02 08:53:50;;;;;;;48.80;34.20;;;4.40;99.90;;;;;;5034673;28;20514;-53
2020/12/02 08:56:31;;;;;;;52.40;35.47;;;4.40;99.90;;;;;;5055419;28;20520;-53
2020/12/02 08:58:58;;;;;;;53.30;35.90;;;4.40;99.90;;;;;;5053786;28;20516;-53
2020/12/02 09:01:26;;;;;;;51.53;34.90;;;4.30;99.90;;;;;;5051560;28;20519;-53
2020/12/02 09:03:53;;;;;;;52.50;35.17;;;4.30;99.90;;;;;;5046101;28;20497;-53
2020/12/02 09:06:21;;;;;;;49.17;34.77;;;4.30;99.90;;;;;;5035026;28;21271;-55
2020/12/02 09:08:50;;;;;;;49.20;34.30;;;4.30;99.90;;;;;;5035044;28;20541;-54
2020/12/02 09:11:26;;;;;;;52.60;35.47;;;4.30;99.90;;;;;;5034622;28;20513;-54
2020/12/02 09:13:54;;;;;;;51.93;33.40;;;4.40;99.90;;;;;;5034077;28;20546;-55
2020/12/02 09:16:25;;;;;;;48.47;34.27;;;4.40;99.90;;;;;;5032833;28;20880;-53
2020/12/02 09:18:52;;;;;;;49.27;34.63;;;4.40;99.90;;;;;;5043419;28;20470;-53
2020/12/02 09:21:21;;;;;;;50.90;35.00;;;4.40;99.90;;;;;;5054597;28;20854;-53
2020/12/02 09:23:48;;;;;;;47.43;32.73;;;4.40;99.90;;;;;;5054097;28;20481;-53
2020/12/02 09:26:18;;;;;;;49.80;33.53;;;4.40;99.90;;;;;;5053779;28;20485;-53
2020/12/02 09:28:47;;;;;;;48.53;34.33;;;4.30;99.90;;;;;;5053892;28;20482;-54
2020/12/02 09:31:15;;;;;;;49.70;34.40;;;4.40;99.90;;;;;;5049515;28;20504;-53
2020/12/02 09:33:42;;;;;;;48.43;33.77;;;4.40;99.90;;;;;;5054575;28;20511;-53
2020/12/02 09:36:10;;;;;;;49.60;31.37;;;4.40;99.90;;;;;;5055031;28;20478;-53
2020/12/02 09:38:38;;;;;;;54.67;36.13;;;4.40;99.90;;;;;;5052386;28;20501;-53
2020/12/02 09:41:32;;;;;;;48.37;33.57;;;4.40;99.90;;;;;;5062665;28;20507;-53
2020/12/02 09:44:27;;;;;;;49.27;33.57;;;4.40;99.90;;;;;;5074322;28;20589;-53
2020/12/02 09:47:00;;;;;;;50.70;34.37;;;4.40;99.90;;;;;;5057246;28;20888;-53
2020/12/02 09:49:28;;;;;;;44.77;32.27;;;4.50;99.90;;;;;;5053645;28;20540;-53
2020/12/02 09:52:20;;;;;;;49.70;32.93;;;4.50;99.90;;;;;;5055013;28;20599;-53
2020/12/02 09:54:48;;;;;;;46.80;32.50;;;4.50;99.90;;;;;;5034890;28;20479;-53
2020/12/02 09:57:18;;;;;;;47.30;32.67;;;4.40;99.90;;;;;;5033260;28;20476;-54
2020/12/02 09:59:46;;;;;;;48.20;32.60;;;4.50;99.90;;;;;;5058273;28;20469;-53
2020/12/02 10:02:42;;;;;;;46.93;33.30;;;4.50;99.90;;;;;;5053373;28;21043;-53
2020/12/02 10:05:31;;;;;;;48.67;31.73;;;4.50;99.90;;;;;;5033791;28;20557;-53
2020/12/02 10:08:09;;;;;;;47.63;32.43;;;4.40;99.90;;;;;;5034775;28;20528;-53
2020/12/02 10:10:47;;;;;;;47.33;31.40;;;4.50;99.90;;;;;;5031430;28;20487;-54
2020/12/02 10:13:32;;;;;;;44.20;31.70;;;4.40;99.90;;;;;;5051245;28;20500;-53
2020/12/02 10:16:08;;;;;;;46.40;31.93;;;4.40;99.90;;;;;;5054094;28;20972;-53
2020/12/02 10:19:15;;;;;;;45.03;30.90;;;4.40;99.90;;;;;;5053798;28;21037;-53
2020/12/02 10:22:09;;;;;;;46.37;31.37;;;4.50;99.90;;;;;;5051570;28;20985;-53
2020/12/02 10:25:03;;;;;;;46.87;33.40;;;4.50;99.90;;;;;;5053958;28;20919;-53
2020/12/02 10:28:00;;;;;;;45.10;32.23;;;4.50;99.90;;;;;;5053541;28;20482;-53
2020/12/02 10:30:30;;;;;;;44.67;30.73;;;4.50;99.90;;;;;;5047665;28;20897;-53
2020/12/02 10:33:22;;;;;;;44.93;29.07;;;4.40;99.90;;;;;;5051663;28;20557;-53
2020/12/02 10:35:50;;;;;;;48.00;31.17;;;4.50;99.90;;;;;;5050961;28;20478;-55
2020/12/02 10:38:32;;;;;;;46.50;32.17;;;4.50;99.90;;;;;;5033471;28;21359;-53
2020/12/02 10:41:15;;;;;;;47.30;32.10;;;4.50;99.90;;;;;;5041701;28;20509;-53
2020/12/02 10:44:16;;;;;;;44.70;31.70;;;4.50;99.90;;;;;;5052852;28;20550;-53
2020/12/02 10:47:40;;;;;;;43.97;31.17;;;4.40;99.90;;;;;;5053966;28;20507;-53
2020/12/02 10:50:09;;;;;;;45.70;31.13;;;4.50;99.90;;;;;;5019723;28;20505;-54
2020/12/02 10:52:39;;;;;;;46.50;32.47;;;4.50;99.90;;;;;;5046509;28;20477;-53
2020/12/02 10:55:13;;;;;;;49.10;30.23;;;4.50;99.90;;;;;;5040574;28;20471;-53
2020/12/02 10:57:42;;;;;;;47.77;32.47;;;4.50;99.90;;;;;;5044100;28;20511;-54
2020/12/02 11:00:13;;;;;;;44.17;31.33;;;4.50;99.90;;;;;;5052700;28;20555;-53
2020/12/02 11:02:42;;;;;;;49.67;33.43;;;4.60;99.90;;;;;;5054381;28;20503;-53
2020/12/02 11:05:10;;;;;;;53.30;35.97;;;4.50;99.90;;;;;;5053810;28;20480;-53
2020/12/02 11:07:44;;;;;;;50.40;35.53;;;4.50;99.90;;;;;;5054453;28;20510;-53
2020/12/02 11:10:19;;;;;;;47.10;32.93;;;4.70;99.90;;;;;;5053563;28;20466;-53
2020/12/02 11:13:06;;;;;;;49.60;34.90;;;4.70;99.90;;;;;;5054506;28;20468;-53
2020/12/02 11:15:51;;;;;;;51.77;36.47;;;4.70;99.90;;;;;;5052684;28;20516;-54
2020/12/02 11:19:03;;;;;;;49.00;34.00;;;4.60;99.90;;;;;;5034423;28;20569;-53
2020/12/02 11:21:49;;;;;;;45.47;31.77;;;4.60;99.90;;;;;;5032634;28;20543;-53
2020/12/02 11:24:55;;;;;;;43.27;31.60;;;4.50;99.90;;;;;;5032742;28;20478;-54
2020/12/02 11:27:22;;;;;;;46.80;31.83;;;4.60;99.90;;;;;;5030784;28;20292;-53
2020/12/02 11:29:51;;;;;;;43.60;28.50;;;4.60;99.90;;;;;;5041863;28;20902;-53
2020/12/02 11:33:22;;;;;;;43.83;30.87;;;4.60;99.90;;;;;;5050539;28;20906;-54
2020/12/02 11:36:49;;;;;;;47.87;32.00;;;4.70;99.90;;;;;;5041883;28;20484;-53
2020/12/02 11:39:46;;;;;;;45.67;31.40;;;4.60;99.90;;;;;;5052886;28;20514;-54
2020/12/02 11:42:23;;;;;;;49.57;33.27;;;4.70;99.90;;;;;;5032056;28;20483;-53
2020/12/02 11:44:57;;;;;;;45.70;30.37;;;4.70;99.90;;;;;;5030132;28;21011;-54
2020/12/02 11:47:43;;;;;;;43.07;29.57;;;4.70;99.90;;;;;;5033404;28;20521;-53
2020/12/02 11:50:18;;;;;;;46.30;32.10;;;4.80;99.90;;;;;;5052003;28;20522;-54
2020/12/02 11:53:03;;;;;;;47.27;32.57;;;4.70;99.90;;;;;;5037991;28;20473;-53
2020/12/02 11:55:32;;;;;;;45.50;32.20;;;4.80;99.90;;;;;;5044446;28;20494;-53
2020/12/02 11:58:04;;;;;;;42.13;30.43;;;4.70;99.90;;;;;;5051821;28;20565;-54
2020/12/02 12:00:31;;;;;;;49.20;32.07;;;4.80;99.90;;;;;;5050212;28;20502;-53
2020/12/02 12:03:15;;;;;;;44.93;31.97;;;4.70;99.90;;;;;;5052184;28;20569;-55
2020/12/02 12:05:53;;;;;;;48.70;33.20;;;4.80;99.90;;;;;;5051041;28;20896;-53
2020/12/02 12:08:32;;;;;;;45.80;31.97;;;4.70;99.90;;;;;;5048715;28;20914;-54
2020/12/02 12:11:04;;;;;;;42.97;30.63;;;4.70;99.90;;;;;;5051619;28;20506;-54
2020/12/02 12:13:39;;;;;;;44.53;32.23;;;4.70;99.90;;;;;;5055460;28;20485;-55
2020/12/02 12:16:15;;;;;;;45.77;32.43;;;4.70;99.90;;;;;;5055011;28;20623;-54
2020/12/02 12:18:54;;;;;;;47.13;32.53;;;4.60;99.90;;;;;;5052724;28;20482;-53
2020/12/02 12:21:33;;;;;;;49.83;33.57;;;4.60;99.90;;;;;;5051390;28;20581;-53
2020/12/02 12:24:04;;;;;;;48.73;33.57;;;4.60;99.90;;;;;;5051185;28;20473;-53
2020/12/02 12:26:40;;;;;;;44.53;31.40;;;4.60;99.90;;;;;;5051873;28;20543;-54
2020/12/02 12:29:08;;;;;;;46.20;31.87;;;4.50;99.90;;;;;;5054542;28;20468;-55
2020/12/02 12:31:45;;;;;;;48.07;33.63;;;4.60;99.90;;;;;;5053503;28;20573;-54
2020/12/02 12:34:28;;;;;;;49.60;33.67;;;4.60;99.90;;;;;;5053072;28;20492;-54
2020/12/02 12:37:03;;;;;;;46.83;32.37;;;4.50;99.90;;;;;;5053864;28;20485;-53
2020/12/02 12:39:39;;;;;;;47.50;32.53;;;4.50;99.90;;;;;;5054067;28;20484;-53
2020/12/02 12:42:12;;;;;;;47.10;32.40;;;4.60;99.90;;;;;;5050609;28;20501;-54
2020/12/02 12:44:41;;;;;;;47.27;32.90;;;4.60;99.90;;;;;;5034531;28;20478;-54
2020/12/02 12:47:20;;;;;;;47.03;33.07;;;4.60;99.90;;;;;;5047663;28;20476;-55
2020/12/02 12:49:47;;;;;;;45.13;32.30;;;4.60;99.90;;;;;;5053982;28;20484;-54
2020/12/02 12:52:21;;;;;;;45.20;31.70;;;4.50;99.90;;;;;;5065239;28;20886;-53
2020/12/02 12:54:48;;;;;;;46.53;31.27;;;4.60;99.90;;;;;;5071232;28;20490;-54
2020/12/02 12:57:21;;;;;;;44.07;31.47;;;4.60;99.90;;;;;;5042171;28;20497;-53
2020/12/02 12:59:54;;;;;;;46.03;31.37;;;4.50;99.90;;;;;;5038727;28;20534;-53
2020/12/02 13:02:26;;;;;;;46.37;31.13;;;4.60;99.90;;;;;;5047825;28;20474;-54
2020/12/02 13:04:53;;;;;;;43.47;31.10;;;4.60;99.90;;;;;;5038171;28;20514;-53
2020/12/02 13:07:23;;;;;;;43.83;30.00;;;4.50;99.90;;;;;;5032562;28;20621;-53
2020/12/02 13:10:27;;;;;;;43.33;30.57;;;4.50;99.90;;;;;;5032305;28;20813;-53
2020/12/02 13:13:10;;;;;;;52.03;31.63;;;4.50;99.90;;;;;;5031352;28;20998;-54
2020/12/02 13:15:47;;;;;;;45.60;30.47;;;4.60;99.90;;;;;;5034922;28;20548;-54